ΕΜΥ, Εθνική Μετεωρολογική Υπηρεσία - Δελτία Καιρού, Προγνώσεις

ΑΕΡΟΝΑΥΤΙΛΙΑ

GREEK AIRPORTS CODES

TAF LGML 240700Z 2409/2418 24015KT 9999 FEW012 SCT040 TEMPO 2409/2416 24015G25KT PROB40 TEMPO 2412/2418 5000 RA FEW012 SCT020 BKN030 PROB30 TEMPO 2412/2416 4000 TSRA SCT012 FEW018CB BKN025=

EUROPEAN AIRPORTS CODES